KCCA/CCA METAR and TAF weather

Enter ICAO airport designator
Station Type Date Time Source
KCCA METAR 2018/01/19 23:15 UTC NOAA

KCCA 192315Z AUTO 14008G13KT 9SM CLR 08/M03 A3007 RMK AO2


Station Type Date Time Source
KCCA Decoded METAR 2018/01/19 23:15 UTC NOAA

Station name not available
Jan 19, 2018 - 06:15 PM EST / 2018.01.19 2315 UTC
Wind: from the SE (140 degrees) at 9 MPH (8 KT) gusting to 15 MPH (13 KT):0
Visibility: 9 mile(s):0
Sky conditions: clear
Temperature: 46 F (8 C)
Dew Point: 26 F (-3 C)
Relative Humidity: 45%
Pressure (altimeter): 30.07 in. Hg (1018 hPa)
ob: KCCA 192315Z AUTO 14008G13KT 9SM CLR 08/M03 A3007 RMK AO2
cycle: 23

Station Type Date Time Source
KCCA TAF UTC NOAA

Error!


Example: see airport list